sensor_id;sensor_type;location;lat;lon;timestamp;P1;durP1;ratioP1;P2;durP2;ratioP2
52072;SDS011;38074;51.232;6.826;2023-03-16T00:00:56;1.40;;;0.63;;
52072;SDS011;38074;51.232;6.826;2023-03-16T00:08:12;1.30;;;0.70;;
52072;SDS011;38074;51.232;6.826;2023-03-16T00:15:28;0.77;;;0.37;;
52072;SDS011;38074;51.232;6.826;2023-03-16T00:22:44;1.38;;;0.63;;
52072;SDS011;38074;51.232;6.826;2023-03-16T00:29:59;1.30;;;0.45;;
52072;SDS011;38074;51.232;6.826;2023-03-16T00:37:17;0.80;;;0.45;;
52072;SDS011;38074;51.232;6.826;2023-03-16T00:44:37;1.45;;;0.60;;
52072;SDS011;38074;51.232;6.826;2023-03-16T00:51:53;0.95;;;0.47;;
52072;SDS011;38074;51.232;6.826;2023-03-16T00:59:08;0.70;;;0.40;;
52072;SDS011;38074;51.232;6.826;2023-03-16T01:06:27;0.60;;;0.40;;
52072;SDS011;38074;51.232;6.826;2023-03-16T01:13:43;1.00;;;0.33;;
52072;SDS011;38074;51.232;6.826;2023-03-16T01:21:01;0.93;;;0.40;;
52072;SDS011;38074;51.232;6.826;2023-03-16T01:28:18;1.37;;;0.57;;
52072;SDS011;38074;51.232;6.826;2023-03-16T01:35:38;1.02;;;0.40;;
52072;SDS011;38074;51.232;6.826;2023-03-16T01:43:01;1.00;;;0.50;;
52072;SDS011;38074;51.232;6.826;2023-03-16T01:50:18;0.90;;;0.50;;
52072;SDS011;38074;51.232;6.826;2023-03-16T01:57:35;1.10;;;0.40;;
52072;SDS011;38074;51.232;6.826;2023-03-16T02:12:18;1.15;;;0.30;;
52072;SDS011;38074;51.232;6.826;2023-03-16T02:19:40;1.90;;;0.50;;
52072;SDS011;38074;51.232;6.826;2023-03-16T02:27:10;0.40;;;0.30;;
52072;SDS011;38074;51.232;6.826;2023-03-16T02:34:27;0.50;;;0.40;;
52072;SDS011;38074;51.232;6.826;2023-03-16T02:41:44;1.13;;;0.40;;
52072;SDS011;38074;51.232;6.826;2023-03-16T02:56:30;0.52;;;0.32;;
52072;SDS011;38074;51.232;6.826;2023-03-16T03:03:45;0.63;;;0.30;;
52072;SDS011;38074;51.232;6.826;2023-03-16T03:11:01;0.40;;;0.27;;
52072;SDS011;38074;51.232;6.826;2023-03-16T03:18:16;0.40;;;0.30;;
52072;SDS011;38074;51.232;6.826;2023-03-16T03:25:32;0.32;;;0.30;;
52072;SDS011;38074;51.232;6.826;2023-03-16T03:32:50;0.57;;;0.30;;
52072;SDS011;38074;51.232;6.826;2023-03-16T03:40:06;0.85;;;0.32;;
52072;SDS011;38074;51.232;6.826;2023-03-16T03:47:24;0.30;;;0.20;;
52072;SDS011;38074;51.232;6.826;2023-03-16T03:54:39;0.30;;;0.20;;
52072;SDS011;38074;51.232;6.826;2023-03-16T04:01:55;0.30;;;0.20;;
52072;SDS011;38074;51.232;6.826;2023-03-16T04:09:10;0.50;;;0.30;;
52072;SDS011;38074;51.232;6.826;2023-03-16T04:16:26;0.65;;;0.30;;
52072;SDS011;38074;51.232;6.826;2023-03-16T04:23:42;0.40;;;0.20;;
52072;SDS011;38074;51.232;6.826;2023-03-16T04:31:02;0.65;;;0.28;;
52072;SDS011;38074;51.232;6.826;2023-03-16T04:38:22;0.80;;;0.28;;
52072;SDS011;38074;51.232;6.826;2023-03-16T04:45:38;0.33;;;0.20;;
52072;SDS011;38074;51.232;6.826;2023-03-16T04:52:53;0.30;;;0.20;;
52072;SDS011;38074;51.232;6.826;2023-03-16T05:00:09;0.40;;;0.20;;
52072;SDS011;38074;51.232;6.826;2023-03-16T05:07:27;0.50;;;0.30;;
52072;SDS011;38074;51.232;6.826;2023-03-16T05:14:43;0.53;;;0.27;;
52072;SDS011;38074;51.232;6.826;2023-03-16T05:21:58;0.40;;;0.30;;
52072;SDS011;38074;51.232;6.826;2023-03-16T05:29:14;0.30;;;0.20;;
52072;SDS011;38074;51.232;6.826;2023-03-16T05:36:30;0.43;;;0.30;;
52072;SDS011;38074;51.232;6.826;2023-03-16T05:43:46;0.45;;;0.22;;
52072;SDS011;38074;51.232;6.826;2023-03-16T05:51:01;0.30;;;0.20;;
52072;SDS011;38074;51.232;6.826;2023-03-16T05:58:19;0.63;;;0.30;;
52072;SDS011;38074;51.232;6.826;2023-03-16T06:05:35;0.40;;;0.27;;
52072;SDS011;38074;51.232;6.826;2023-03-16T06:12:51;0.67;;;0.30;;
52072;SDS011;38074;51.232;6.826;2023-03-16T06:20:07;1.30;;;0.32;;
52072;SDS011;38074;51.232;6.826;2023-03-16T06:27:25;1.35;;;0.30;;
52072;SDS011;38074;51.232;6.826;2023-03-16T06:34:40;3.93;;;0.97;;
52072;SDS011;38074;51.232;6.826;2023-03-16T06:41:56;4.50;;;1.40;;
52072;SDS011;38074;51.232;6.826;2023-03-16T06:49:12;8.60;;;1.55;;
52072;SDS011;38074;51.232;6.826;2023-03-16T06:56:27;5.83;;;2.03;;
52072;SDS011;38074;51.232;6.826;2023-03-16T07:03:43;9.52;;;1.95;;
52072;SDS011;38074;51.232;6.826;2023-03-16T07:10:59;6.77;;;1.83;;
52072;SDS011;38074;51.232;6.826;2023-03-16T07:18:15;4.47;;;1.13;;
52072;SDS011;38074;51.232;6.826;2023-03-16T07:25:31;10.25;;;2.10;;
52072;SDS011;38074;51.232;6.826;2023-03-16T07:32:46;4.33;;;1.30;;
52072;SDS011;38074;51.232;6.826;2023-03-16T07:40:02;9.07;;;1.73;;
52072;SDS011;38074;51.232;6.826;2023-03-16T07:47:19;9.20;;;1.33;;
52072;SDS011;38074;51.232;6.826;2023-03-16T07:54:35;4.00;;;1.55;;
52072;SDS011;38074;51.232;6.826;2023-03-16T08:01:50;7.13;;;1.30;;
52072;SDS011;38074;51.232;6.826;2023-03-16T08:09:06;8.20;;;1.40;;
52072;SDS011;38074;51.232;6.826;2023-03-16T08:16:22;6.25;;;1.27;;
52072;SDS011;38074;51.232;6.826;2023-03-16T08:23:38;4.47;;;0.97;;
52072;SDS011;38074;51.232;6.826;2023-03-16T08:30:54;4.15;;;0.93;;
52072;SDS011;38074;51.232;6.826;2023-03-16T08:38:10;3.92;;;1.00;;
52072;SDS011;38074;51.232;6.826;2023-03-16T08:45:26;3.07;;;1.00;;
52072;SDS011;38074;51.232;6.826;2023-03-16T08:52:42;3.47;;;0.90;;
52072;SDS011;38074;51.232;6.826;2023-03-16T08:59:58;3.53;;;1.10;;
52072;SDS011;38074;51.232;6.826;2023-03-16T09:07:14;3.40;;;1.00;;
52072;SDS011;38074;51.232;6.826;2023-03-16T09:14:29;4.20;;;1.00;;
52072;SDS011;38074;51.232;6.826;2023-03-16T09:21:45;3.80;;;0.87;;
52072;SDS011;38074;51.232;6.826;2023-03-16T09:29:01;2.78;;;0.68;;
52072;SDS011;38074;51.232;6.826;2023-03-16T09:36:17;2.97;;;0.90;;
52072;SDS011;38074;51.232;6.826;2023-03-16T09:58:52;1.92;;;0.50;;
52072;SDS011;38074;51.232;6.826;2023-03-16T10:06:10;1.57;;;0.47;;
52072;SDS011;38074;51.232;6.826;2023-03-16T10:20:52;1.20;;;0.50;;
52072;SDS011;38074;51.232;6.826;2023-03-16T10:28:11;1.92;;;0.50;;
52072;SDS011;38074;51.232;6.826;2023-03-16T10:35:43;1.55;;;0.60;;
52072;SDS011;38074;51.232;6.826;2023-03-16T10:43:20;1.95;;;0.50;;
52072;SDS011;38074;51.232;6.826;2023-03-16T10:50:36;2.38;;;0.40;;
52072;SDS011;38074;51.232;6.826;2023-03-16T10:57:52;0.82;;;0.30;;
52072;SDS011;38074;51.232;6.826;2023-03-16T11:05:10;1.00;;;0.40;;
52072;SDS011;38074;51.232;6.826;2023-03-16T11:19:52;1.58;;;0.40;;
52072;SDS011;38074;51.232;6.826;2023-03-16T11:27:14;3.33;;;0.47;;
52072;SDS011;38074;51.232;6.826;2023-03-16T11:34:41;0.65;;;0.30;;
52072;SDS011;38074;51.232;6.826;2023-03-16T11:49:46;2.47;;;0.60;;
52072;SDS011;38074;51.232;6.826;2023-03-16T12:12:58;1.10;;;0.30;;
52072;SDS011;38074;51.232;6.826;2023-03-16T12:20:33;0.70;;;0.30;;
52072;SDS011;38074;51.232;6.826;2023-03-16T12:27:57;0.90;;;0.28;;
52072;SDS011;38074;51.232;6.826;2023-03-16T12:50:47;0.60;;;0.30;;
52072;SDS011;38074;51.232;6.826;2023-03-16T12:58:05;0.63;;;0.30;;
52072;SDS011;38074;51.232;6.826;2023-03-16T13:05:29;1.17;;;0.35;;
52072;SDS011;38074;51.232;6.826;2023-03-16T13:12:49;1.27;;;0.40;;
52072;SDS011;38074;51.232;6.826;2023-03-16T13:20:22;0.77;;;0.20;;
52072;SDS011;38074;51.232;6.826;2023-03-16T13:27:46;0.70;;;0.20;;
52072;SDS011;38074;51.232;6.826;2023-03-16T13:35:06;0.30;;;0.10;;
52072;SDS011;38074;51.232;6.826;2023-03-16T13:42:28;0.20;;;0.17;;
52072;SDS011;38074;51.232;6.826;2023-03-16T13:49:53;0.47;;;0.20;;
52072;SDS011;38074;51.232;6.826;2023-03-16T13:57:10;0.80;;;0.30;;
52072;SDS011;38074;51.232;6.826;2023-03-16T14:04:29;0.40;;;0.15;;
52072;SDS011;38074;51.232;6.826;2023-03-16T14:11:46;0.40;;;0.20;;
52072;SDS011;38074;51.232;6.826;2023-03-16T14:26:56;0.43;;;0.20;;
52072;SDS011;38074;51.232;6.826;2023-03-16T14:34:38;0.53;;;0.13;;
52072;SDS011;38074;51.232;6.826;2023-03-16T14:41:53;0.50;;;0.30;;
52072;SDS011;38074;51.232;6.826;2023-03-16T14:56:34;0.30;;;0.15;;
52072;SDS011;38074;51.232;6.826;2023-03-16T15:03:50;0.47;;;0.20;;
52072;SDS011;38074;51.232;6.826;2023-03-16T15:11:06;0.73;;;0.20;;
52072;SDS011;38074;51.232;6.826;2023-03-16T15:18:21;0.45;;;0.20;;
52072;SDS011;38074;51.232;6.826;2023-03-16T15:25:41;0.33;;;0.20;;
52072;SDS011;38074;51.232;6.826;2023-03-16T15:32:58;0.40;;;0.10;;
52072;SDS011;38074;51.232;6.826;2023-03-16T15:47:31;1.25;;;0.32;;
52072;SDS011;38074;51.232;6.826;2023-03-16T15:54:47;3.67;;;0.70;;
52072;SDS011;38074;51.232;6.826;2023-03-16T16:02:07;1.40;;;0.40;;
52072;SDS011;38074;51.232;6.826;2023-03-16T16:09:40;0.80;;;0.40;;
52072;SDS011;38074;51.232;6.826;2023-03-16T16:16:55;1.83;;;0.40;;
52072;SDS011;38074;51.232;6.826;2023-03-16T16:24:12;0.73;;;0.27;;
52072;SDS011;38074;51.232;6.826;2023-03-16T16:31:27;0.73;;;0.30;;
52072;SDS011;38074;51.232;6.826;2023-03-16T16:38:44;0.83;;;0.20;;
52072;SDS011;38074;51.232;6.826;2023-03-16T16:46:04;1.60;;;0.30;;
52072;SDS011;38074;51.232;6.826;2023-03-16T16:53:25;0.55;;;0.20;;
52072;SDS011;38074;51.232;6.826;2023-03-16T17:00:41;2.22;;;0.40;;
52072;SDS011;38074;51.232;6.826;2023-03-16T17:07:58;2.15;;;0.45;;
52072;SDS011;38074;51.232;6.826;2023-03-16T17:15:22;1.58;;;0.30;;
52072;SDS011;38074;51.232;6.826;2023-03-16T17:22:38;2.05;;;0.35;;
52072;SDS011;38074;51.232;6.826;2023-03-16T17:29:54;4.07;;;0.60;;
52072;SDS011;38074;51.232;6.826;2023-03-16T17:37:12;3.87;;;0.50;;
52072;SDS011;38074;51.232;6.826;2023-03-16T17:44:31;2.67;;;0.57;;
52072;SDS011;38074;51.232;6.826;2023-03-16T17:51:49;1.10;;;0.35;;
52072;SDS011;38074;51.232;6.826;2023-03-16T17:59:06;3.03;;;0.60;;
52072;SDS011;38074;51.232;6.826;2023-03-16T18:06:30;1.70;;;0.68;;
52072;SDS011;38074;51.232;6.826;2023-03-16T18:13:46;5.25;;;0.90;;
52072;SDS011;38074;51.232;6.826;2023-03-16T18:21:03;3.22;;;0.68;;
52072;SDS011;38074;51.232;6.826;2023-03-16T18:28:19;6.35;;;0.90;;
52072;SDS011;38074;51.232;6.826;2023-03-16T18:35:35;2.43;;;0.60;;
52072;SDS011;38074;51.232;6.826;2023-03-16T18:42:51;3.80;;;0.60;;
52072;SDS011;38074;51.232;6.826;2023-03-16T18:57:35;2.17;;;0.70;;
52072;SDS011;38074;51.232;6.826;2023-03-16T19:04:51;2.78;;;0.47;;
52072;SDS011;38074;51.232;6.826;2023-03-16T19:12:08;1.83;;;0.20;;
52072;SDS011;38074;51.232;6.826;2023-03-16T19:19:30;1.05;;;0.30;;
52072;SDS011;38074;51.232;6.826;2023-03-16T19:26:45;3.53;;;0.60;;
52072;SDS011;38074;51.232;6.826;2023-03-16T19:34:01;6.47;;;0.70;;
52072;SDS011;38074;51.232;6.826;2023-03-16T19:41:24;2.57;;;0.60;;
52072;SDS011;38074;51.232;6.826;2023-03-16T19:48:44;7.13;;;1.30;;
52072;SDS011;38074;51.232;6.826;2023-03-16T19:56:01;6.23;;;1.03;;
52072;SDS011;38074;51.232;6.826;2023-03-16T20:03:17;3.80;;;0.80;;
52072;SDS011;38074;51.232;6.826;2023-03-16T20:10:33;6.63;;;0.80;;
52072;SDS011;38074;51.232;6.826;2023-03-16T20:17:49;5.78;;;0.75;;
52072;SDS011;38074;51.232;6.826;2023-03-16T20:25:05;7.20;;;1.15;;
52072;SDS011;38074;51.232;6.826;2023-03-16T20:32:22;4.05;;;0.90;;
52072;SDS011;38074;51.232;6.826;2023-03-16T20:39:39;4.72;;;0.82;;
52072;SDS011;38074;51.232;6.826;2023-03-16T20:46:54;4.57;;;0.90;;
52072;SDS011;38074;51.232;6.826;2023-03-16T20:54:10;2.97;;;0.70;;
52072;SDS011;38074;51.232;6.826;2023-03-16T21:01:25;4.13;;;0.77;;
52072;SDS011;38074;51.232;6.826;2023-03-16T21:08:41;3.30;;;1.27;;
52072;SDS011;38074;51.232;6.826;2023-03-16T21:15:57;2.03;;;0.90;;
52072;SDS011;38074;51.232;6.826;2023-03-16T21:23:16;1.92;;;0.90;;
52072;SDS011;38074;51.232;6.826;2023-03-16T21:30:42;3.58;;;1.08;;
52072;SDS011;38074;51.232;6.826;2023-03-16T21:38:00;2.08;;;0.75;;
52072;SDS011;38074;51.232;6.826;2023-03-16T21:52:43;2.15;;;0.70;;
52072;SDS011;38074;51.232;6.826;2023-03-16T22:00:00;1.43;;;0.73;;
52072;SDS011;38074;51.232;6.826;2023-03-16T22:07:16;3.20;;;0.70;;
52072;SDS011;38074;51.232;6.826;2023-03-16T22:14:32;1.75;;;0.60;;
52072;SDS011;38074;51.232;6.826;2023-03-16T22:21:47;2.47;;;0.60;;
52072;SDS011;38074;51.232;6.826;2023-03-16T22:29:18;0.98;;;0.40;;
52072;SDS011;38074;51.232;6.826;2023-03-16T22:36:38;1.25;;;0.50;;
52072;SDS011;38074;51.232;6.826;2023-03-16T22:43:53;1.67;;;0.40;;
52072;SDS011;38074;51.232;6.826;2023-03-16T22:51:10;1.10;;;0.50;;
52072;SDS011;38074;51.232;6.826;2023-03-16T22:58:39;3.22;;;0.55;;
52072;SDS011;38074;51.232;6.826;2023-03-16T23:06:00;1.17;;;0.40;;
52072;SDS011;38074;51.232;6.826;2023-03-16T23:13:17;1.25;;;0.45;;
52072;SDS011;38074;51.232;6.826;2023-03-16T23:20:36;0.93;;;0.40;;
52072;SDS011;38074;51.232;6.826;2023-03-16T23:27:51;0.73;;;0.50;;
52072;SDS011;38074;51.232;6.826;2023-03-16T23:35:40;1.23;;;0.40;;
52072;SDS011;38074;51.232;6.826;2023-03-16T23:42:49;0.50;;;0.20;;
52072;SDS011;38074;51.232;6.826;2023-03-16T23:50:08;0.63;;;0.22;;
52072;SDS011;38074;51.232;6.826;2023-03-16T23:57:26;2.55;;;0.30;;
